createdAt,value
2019-05-21T00:01:38.357Z,15.40
2019-05-21T00:04:08.347Z,15.40
2019-05-21T00:06:38.295Z,15.30
2019-05-21T00:09:08.943Z,15.30
2019-05-21T00:11:38.940Z,15.40
2019-05-21T00:14:09.481Z,15.30
2019-05-21T00:16:39.944Z,15.20
2019-05-21T00:19:10.106Z,15.30
2019-05-21T00:21:40.236Z,15.20
2019-05-21T00:24:10.514Z,15.10
2019-05-21T00:26:41.191Z,15.10
2019-05-21T00:29:46.978Z,15.20
2019-05-21T00:32:52.384Z,15.20
2019-05-21T00:35:58.659Z,15.20
2019-05-21T00:39:04.928Z,15.10
2019-05-21T00:42:01.850Z,15.10
2019-05-21T00:44:35.345Z,15.10
2019-05-21T00:47:06.491Z,15.10
2019-05-21T00:49:36.649Z,15.00
2019-05-21T00:52:08.945Z,15.10
2019-05-21T00:54:39.207Z,15.00
2019-05-21T00:57:09.150Z,15.00
2019-05-21T00:59:39.444Z,15.00
2019-05-21T01:02:09.646Z,15.00
2019-05-21T01:04:39.962Z,15.00
2019-05-21T01:07:11.716Z,14.90
2019-05-21T01:09:42.047Z,14.90
2019-05-21T01:12:12.974Z,14.80
2019-05-21T01:14:42.969Z,14.80
2019-05-21T01:17:13.120Z,14.80
2019-05-21T01:19:43.141Z,14.80
2019-05-21T01:22:13.063Z,14.80
2019-05-21T01:24:43.927Z,14.80
2019-05-21T01:27:14.394Z,14.70
2019-05-21T01:29:44.631Z,14.70
2019-05-21T01:32:14.697Z,14.70
2019-05-21T01:34:44.664Z,14.70
2019-05-21T01:37:15.083Z,14.70
2019-05-21T01:39:45.823Z,14.60
2019-05-21T01:42:15.856Z,14.60
2019-05-21T01:44:45.766Z,14.60
2019-05-21T01:47:15.858Z,14.70
2019-05-21T01:49:45.802Z,14.80
2019-05-21T01:52:15.948Z,14.70
2019-05-21T01:54:46.630Z,14.70
2019-05-21T01:57:16.891Z,14.70
2019-05-21T01:59:47.217Z,14.70
2019-05-21T02:02:17.344Z,14.70
2019-05-21T02:04:47.698Z,14.70
2019-05-21T02:07:17.594Z,14.70
2019-05-21T02:10:00.963Z,14.70
2019-05-21T02:12:31.290Z,14.70
2019-05-21T02:15:01.394Z,14.70
2019-05-21T02:17:32.145Z,14.70
2019-05-21T02:20:02.091Z,14.70
2019-05-21T02:22:32.466Z,14.60
2019-05-21T02:25:02.994Z,14.60
2019-05-21T02:27:33.431Z,14.50
2019-05-21T02:30:04.158Z,14.50
2019-05-21T02:32:35.590Z,14.50
2019-05-21T02:35:05.894Z,14.50
2019-05-21T02:37:36.614Z,14.40
2019-05-21T02:40:07.355Z,14.40
2019-05-21T02:42:37.556Z,14.30
2019-05-21T02:45:07.987Z,14.20
2019-05-21T02:47:38.472Z,14.20
2019-05-21T02:50:09.870Z,14.30
2019-05-21T02:52:40.415Z,14.20
2019-05-21T02:55:10.892Z,14.30
2019-05-21T02:57:41.877Z,14.20
2019-05-21T03:00:50.733Z,14.10
2019-05-21T03:03:24.157Z,14.10
2019-05-21T03:06:12.378Z,14.10
2019-05-21T03:08:26.130Z,14.10
2019-05-21T03:10:56.424Z,14.10
2019-05-21T03:13:26.680Z,14.10
2019-05-21T03:15:57.083Z,14.10
2019-05-21T03:18:27.628Z,14.10
2019-05-21T03:20:57.922Z,14.00
2019-05-21T03:23:27.991Z,13.90
2019-05-21T03:25:58.135Z,13.90
2019-05-21T03:28:29.010Z,13.80
2019-05-21T03:30:58.965Z,13.80
2019-05-21T03:33:29.064Z,13.80
2019-05-21T03:35:59.672Z,13.80
2019-05-21T03:38:30.514Z,13.80
2019-05-21T03:41:00.505Z,13.80
2019-05-21T03:43:32.271Z,13.80
2019-05-21T03:46:02.306Z,13.70
2019-05-21T03:48:32.433Z,13.70
2019-05-21T03:51:03.067Z,13.60
2019-05-21T03:53:33.558Z,13.70
2019-05-21T03:56:03.631Z,13.80
2019-05-21T03:58:33.906Z,13.80
2019-05-21T04:01:04.359Z,13.80
2019-05-21T04:03:37.275Z,13.80
2019-05-21T04:06:07.270Z,13.80
2019-05-21T04:08:37.688Z,13.80
2019-05-21T04:11:08.048Z,13.70
2019-05-21T04:13:38.167Z,13.80
2019-05-21T04:16:21.932Z,13.80
2019-05-21T04:18:56.471Z,13.90
2019-05-21T04:21:26.554Z,13.90
2019-05-21T04:23:57.244Z,13.90
2019-05-21T04:26:27.558Z,13.80
2019-05-21T04:28:57.748Z,13.80
2019-05-21T04:31:27.771Z,13.80
2019-05-21T04:33:58.054Z,13.90
2019-05-21T04:36:30.100Z,13.90
2019-05-21T04:39:00.346Z,13.90
2019-05-21T04:41:30.670Z,13.90
2019-05-21T04:44:00.940Z,13.80
2019-05-21T04:46:31.399Z,13.80
2019-05-21T04:49:01.461Z,13.90
2019-05-21T04:51:31.932Z,13.80
2019-05-21T04:54:02.397Z,13.80
2019-05-21T04:56:32.856Z,13.90
2019-05-21T04:59:03.387Z,13.90
2019-05-21T05:01:33.737Z,13.90
2019-05-21T05:04:03.802Z,13.90
2019-05-21T05:06:34.420Z,14.00
2019-05-21T05:09:06.102Z,14.00
2019-05-21T05:11:36.280Z,14.00
2019-05-21T05:14:06.766Z,14.00
2019-05-21T05:16:36.850Z,14.10
2019-05-21T05:19:07.086Z,14.20
2019-05-21T05:21:37.618Z,14.20
2019-05-21T05:24:07.726Z,14.20
2019-05-21T05:26:37.722Z,14.10
2019-05-21T05:29:08.360Z,14.10
2019-05-21T05:31:41.566Z,14.20
2019-05-21T05:34:11.824Z,14.20
2019-05-21T05:36:41.694Z,14.20
2019-05-21T05:39:11.673Z,14.20
2019-05-21T05:41:42.045Z,14.30
2019-05-21T05:44:13.810Z,14.20
2019-05-21T05:46:43.731Z,14.20
2019-05-21T05:49:28.127Z,14.20
2019-05-21T05:51:58.671Z,14.20
2019-05-21T05:54:29.143Z,14.20
2019-05-21T05:56:59.536Z,14.20
2019-05-21T05:59:29.943Z,14.20
2019-05-21T06:02:00.329Z,14.20
2019-05-21T06:04:30.748Z,14.30
2019-05-21T06:07:01.188Z,14.20
2019-05-21T06:09:31.250Z,14.20
2019-05-21T06:12:01.683Z,14.30
2019-05-21T06:14:32.250Z,14.30
2019-05-21T06:17:02.832Z,14.30
2019-05-21T06:19:33.277Z,14.30
2019-05-21T06:22:03.118Z,14.30
2019-05-21T06:24:33.328Z,14.30
2019-05-21T06:27:03.790Z,14.30
2019-05-21T06:29:34.305Z,14.30
2019-05-21T06:32:05.375Z,14.20
2019-05-21T06:34:36.166Z,14.30
2019-05-21T06:37:06.866Z,14.30
2019-05-21T06:39:38.315Z,14.30
2019-05-21T06:42:08.350Z,14.30
2019-05-21T06:44:38.473Z,14.40
2019-05-21T06:47:08.644Z,14.40
2019-05-21T06:49:39.163Z,14.50
2019-05-21T06:52:09.230Z,14.50
2019-05-21T06:54:39.436Z,14.60
2019-05-21T06:57:09.895Z,14.70
2019-05-21T06:59:39.930Z,14.70
2019-05-21T07:02:09.992Z,14.60
2019-05-21T07:04:40.518Z,14.50
2019-05-21T07:07:10.811Z,14.50
2019-05-21T07:09:40.988Z,14.50
2019-05-21T07:12:11.251Z,14.40
2019-05-21T07:14:41.329Z,14.40
2019-05-21T07:17:11.727Z,14.40
2019-05-21T07:19:43.476Z,14.40
2019-05-21T07:22:13.794Z,14.40
2019-05-21T07:24:43.943Z,14.40
2019-05-21T07:27:14.423Z,14.40
2019-05-21T07:29:44.391Z,14.40
2019-05-21T07:32:14.456Z,14.40
2019-05-21T07:34:45.434Z,14.50
2019-05-21T07:37:15.796Z,14.50
2019-05-21T07:39:46.053Z,14.60
2019-05-21T07:42:16.242Z,14.60
2019-05-21T07:44:47.571Z,14.60
2019-05-21T07:47:17.788Z,14.70
2019-05-21T07:49:48.677Z,14.70
2019-05-21T07:52:19.251Z,14.70
2019-05-21T07:54:49.483Z,14.60
2019-05-21T07:57:20.339Z,14.60
2019-05-21T07:59:50.391Z,14.70
2019-05-21T08:02:20.535Z,14.70
2019-05-21T08:04:50.847Z,14.60
2019-05-21T08:07:21.356Z,14.70
2019-05-21T08:09:51.209Z,14.70
2019-05-21T08:12:37.417Z,14.70
2019-05-21T08:14:53.279Z,14.70
2019-05-21T08:17:23.513Z,14.80
2019-05-21T08:19:53.791Z,14.70
2019-05-21T08:22:23.961Z,14.70
2019-05-21T08:25:14.104Z,14.80
2019-05-21T08:27:38.930Z,14.70
2019-05-21T08:30:09.584Z,14.80
2019-05-21T08:32:40.128Z,14.80
2019-05-21T08:35:11.380Z,14.80
2019-05-21T08:37:41.427Z,14.80
2019-05-21T08:40:12.327Z,14.70
2019-05-21T08:42:42.497Z,14.80
2019-05-21T08:45:12.776Z,14.80
2019-05-21T08:47:43.078Z,14.80
2019-05-21T08:50:24.143Z,14.80
2019-05-21T08:52:54.542Z,14.80
2019-05-21T08:55:24.715Z,14.80
2019-05-21T08:58:06.299Z,14.70
2019-05-21T09:00:27.628Z,14.80
2019-05-21T09:02:57.832Z,14.90
2019-05-21T09:05:27.943Z,14.90
2019-05-21T09:07:58.488Z,15.00
2019-05-21T09:10:28.660Z,15.20
2019-05-21T09:12:58.947Z,15.10
2019-05-21T09:15:29.197Z,15.10
2019-05-21T09:17:59.358Z,15.10
2019-05-21T09:20:30.373Z,15.00
2019-05-21T09:23:00.711Z,15.00
2019-05-21T09:25:31.274Z,15.00
2019-05-21T09:28:01.709Z,15.00
2019-05-21T09:30:31.846Z,14.90
2019-05-21T09:33:01.971Z,14.90
2019-05-21T09:35:33.599Z,14.90
2019-05-21T09:38:04.135Z,14.90
2019-05-21T09:40:34.451Z,15.00
2019-05-21T09:43:05.006Z,14.90
2019-05-21T09:45:35.319Z,15.00
2019-05-21T09:48:05.998Z,15.00
2019-05-21T09:50:36.943Z,15.00
2019-05-21T09:53:07.483Z,15.00
2019-05-21T09:55:37.664Z,15.10
2019-05-21T09:58:34.195Z,15.10
2019-05-21T10:01:29.062Z,15.20
2019-05-21T10:04:00.220Z,15.10
2019-05-21T10:06:30.963Z,15.00
2019-05-21T10:09:01.488Z,15.00
2019-05-21T10:11:31.751Z,15.10
2019-05-21T10:14:02.544Z,15.00
2019-05-21T10:16:32.698Z,14.90
2019-05-21T10:19:03.050Z,14.90
2019-05-21T10:21:33.336Z,14.90
2019-05-21T10:24:04.004Z,14.90
2019-05-21T10:26:34.789Z,14.80
2019-05-21T10:29:05.732Z,14.90
2019-05-21T10:31:35.693Z,14.80
2019-05-21T10:34:06.421Z,14.80
2019-05-21T10:36:36.523Z,14.80
2019-05-21T10:39:08.460Z,14.90
2019-05-21T10:41:39.038Z,14.80
2019-05-21T10:44:09.537Z,14.80
2019-05-21T10:46:39.623Z,14.80
2019-05-21T10:49:09.934Z,14.70
2019-05-21T10:51:40.159Z,14.70
2019-05-21T10:54:11.393Z,14.70
2019-05-21T10:56:47.929Z,14.60
2019-05-21T10:59:13.658Z,14.60
2019-05-21T11:02:01.528Z,14.70
2019-05-21T11:04:45.239Z,14.70
2019-05-21T11:07:16.939Z,14.70
2019-05-21T11:09:48.247Z,14.70
2019-05-21T11:12:18.736Z,14.70
2019-05-21T11:14:49.130Z,14.70
2019-05-21T11:17:19.146Z,14.60
2019-05-21T11:19:50.123Z,14.60
2019-05-21T11:22:20.873Z,14.60
2019-05-21T11:24:50.961Z,14.50
2019-05-21T11:27:21.055Z,14.50
2019-05-21T11:29:51.625Z,14.50
2019-05-21T11:32:21.625Z,14.50
2019-05-21T11:34:51.602Z,14.50
2019-05-21T11:37:22.091Z,14.50
2019-05-21T11:39:52.011Z,14.40
2019-05-21T11:42:23.467Z,14.50
2019-05-21T11:44:53.899Z,14.40
2019-05-21T11:47:24.513Z,14.50
2019-05-21T11:49:54.800Z,14.40
2019-05-21T11:52:25.983Z,14.40
2019-05-21T11:54:56.198Z,14.40
2019-05-21T11:57:26.098Z,14.30
2019-05-21T11:59:56.571Z,14.30
2019-05-21T12:02:26.638Z,14.30
2019-05-21T12:04:56.652Z,14.40
2019-05-21T12:07:26.779Z,14.40
2019-05-21T12:09:56.895Z,14.40
2019-05-21T12:12:26.950Z,14.40
2019-05-21T12:14:57.031Z,14.40
2019-05-21T12:17:26.904Z,14.40
2019-05-21T12:20:02.762Z,14.40
2019-05-21T12:22:33.062Z,14.50
2019-05-21T12:25:03.663Z,14.40
2019-05-21T12:27:34.057Z,14.50
2019-05-21T12:30:05.489Z,14.40
2019-05-21T12:32:41.584Z,14.40
2019-05-21T12:35:12.266Z,14.40
2019-05-21T12:37:42.331Z,14.40
2019-05-21T12:40:13.249Z,14.50
2019-05-21T12:42:43.629Z,14.40
2019-05-21T12:45:14.056Z,14.40
2019-05-21T12:47:44.116Z,14.50
2019-05-21T12:50:39.756Z,14.60
2019-05-21T12:53:09.946Z,14.60
2019-05-21T12:55:40.790Z,14.80
2019-05-21T12:58:13.060Z,15.00
2019-05-21T13:00:43.854Z,15.20
2019-05-21T13:03:14.683Z,15.30
2019-05-21T13:05:44.964Z,15.30
2019-05-21T13:08:15.490Z,15.50
2019-05-21T13:10:45.916Z,15.50
2019-05-21T13:13:16.190Z,15.40
2019-05-21T13:15:46.863Z,15.40
2019-05-21T13:18:17.386Z,15.40
2019-05-21T13:20:47.864Z,15.50
2019-05-21T13:23:18.097Z,15.70
2019-05-21T13:25:48.640Z,15.70
2019-05-21T13:28:18.850Z,15.80
2019-05-21T13:30:49.222Z,16.00
2019-05-21T13:33:41.177Z,16.00
2019-05-21T13:36:11.816Z,16.00
2019-05-21T13:39:16.479Z,16.10
2019-05-21T13:41:42.695Z,16.10
2019-05-21T13:44:13.209Z,16.20
2019-05-21T13:46:43.901Z,16.20
2019-05-21T13:49:14.281Z,16.30
2019-05-21T13:51:44.373Z,16.40
2019-05-21T13:54:14.510Z,16.40
2019-05-21T13:56:45.117Z,16.30
2019-05-21T14:02:50.497Z,16.30
2019-05-21T14:05:21.187Z,16.40
2019-05-21T14:07:51.205Z,16.60
2019-05-21T14:10:22.167Z,16.80
2019-05-21T14:12:52.493Z,16.90
2019-05-21T14:15:22.643Z,17.00
2019-05-21T14:17:53.536Z,17.20
2019-05-21T14:20:24.419Z,17.30
2019-05-21T14:22:55.810Z,17.40
2019-05-21T14:25:25.903Z,17.60
2019-05-21T14:27:56.320Z,17.80
2019-05-21T14:30:26.833Z,17.80
2019-05-21T14:32:57.066Z,17.90
2019-05-21T14:35:28.718Z,18.00
2019-05-21T14:37:58.814Z,18.20
2019-05-21T14:40:32.576Z,18.20
2019-05-21T14:43:02.446Z,18.10
2019-05-21T14:45:34.518Z,18.30
2019-05-21T14:48:05.235Z,18.30
2019-05-21T14:50:35.263Z,18.50
2019-05-21T14:53:06.199Z,18.50
2019-05-21T14:55:36.473Z,18.60
2019-05-21T14:58:06.961Z,18.50
2019-05-21T15:00:38.569Z,18.60
2019-05-21T15:03:23.930Z,18.40
2019-05-21T15:05:41.449Z,18.50
2019-05-21T15:08:11.871Z,18.50
2019-05-21T15:10:48.476Z,18.40
2019-05-21T15:13:13.842Z,18.30
2019-05-21T15:15:44.356Z,18.30
2019-05-21T15:18:20.705Z,18.30
2019-05-21T15:21:05.405Z,18.40
2019-05-21T15:23:35.899Z,18.50
2019-05-21T15:26:06.226Z,18.40
2019-05-21T15:28:36.832Z,18.50
2019-05-21T15:31:07.527Z,18.50
2019-05-21T15:33:37.745Z,18.50
2019-05-21T15:36:08.477Z,18.50
2019-05-21T15:38:49.578Z,18.40
2019-05-21T15:41:12.630Z,18.60
2019-05-21T15:43:42.363Z,18.60
2019-05-21T15:46:12.436Z,18.60
2019-05-21T15:48:42.458Z,18.70
2019-05-21T15:51:13.102Z,18.70
2019-05-21T15:53:43.143Z,18.70
2019-05-21T15:56:12.987Z,18.60
2019-05-21T15:58:43.049Z,18.70
2019-05-21T16:01:13.061Z,18.70
2019-05-21T16:03:43.257Z,18.80
2019-05-21T16:06:15.010Z,18.80
2019-05-21T16:08:46.070Z,18.70
2019-05-21T16:11:27.921Z,18.70
2019-05-21T16:13:48.731Z,18.50
2019-05-21T16:16:19.117Z,18.40
2019-05-21T16:18:49.233Z,18.30
2019-05-21T16:21:19.542Z,18.30
2019-05-21T16:23:50.125Z,18.30
2019-05-21T16:26:23.306Z,18.40
2019-05-21T16:28:52.545Z,18.30
2019-05-21T16:31:23.172Z,18.30
2019-05-21T16:33:53.523Z,18.20
2019-05-21T16:36:23.909Z,18.20
2019-05-21T16:38:54.781Z,18.20
2019-05-21T16:41:26.669Z,18.10
2019-05-21T16:43:56.780Z,18.20
2019-05-21T16:46:26.921Z,18.20
2019-05-21T16:48:57.434Z,18.10
2019-05-21T16:51:27.533Z,18.10
2019-05-21T16:53:57.912Z,18.00
2019-05-21T16:56:28.162Z,17.90
2019-05-21T16:58:58.383Z,17.80
2019-05-21T17:01:29.143Z,17.80
2019-05-21T17:04:00.381Z,17.80
2019-05-21T17:06:31.098Z,17.70
2019-05-21T17:09:01.382Z,17.80
2019-05-21T17:11:31.796Z,17.80
2019-05-21T17:14:02.607Z,17.60
2019-05-21T17:16:33.142Z,17.70
2019-05-21T17:19:03.506Z,17.70
2019-05-21T17:21:33.768Z,17.70
2019-05-21T17:24:04.733Z,17.60
2019-05-21T17:26:36.191Z,17.60
2019-05-21T17:29:07.067Z,17.40
2019-05-21T17:31:38.166Z,17.40
2019-05-21T17:34:08.205Z,17.40
2019-05-21T17:36:38.297Z,17.30
2019-05-21T17:39:08.680Z,17.20
2019-05-21T17:41:38.895Z,17.20
2019-05-21T17:44:09.376Z,17.00
2019-05-21T17:46:40.183Z,17.10
2019-05-21T17:49:10.401Z,17.10
2019-05-21T17:51:40.533Z,17.00
2019-05-21T17:54:10.721Z,16.90
2019-05-21T17:56:42.401Z,16.80
2019-05-21T17:59:12.562Z,16.70
2019-05-21T18:01:43.007Z,16.60
2019-05-21T18:04:13.499Z,16.60
2019-05-21T18:06:44.147Z,16.60
2019-05-21T18:09:17.680Z,16.50
2019-05-21T18:11:48.107Z,16.50
2019-05-21T18:14:18.945Z,16.40
2019-05-21T18:16:49.231Z,16.30
2019-05-21T18:19:20.140Z,16.30
2019-05-21T18:21:50.395Z,16.30
2019-05-21T18:24:21.128Z,16.30
2019-05-21T18:26:51.189Z,16.30
2019-05-21T18:29:21.573Z,16.20
2019-05-21T18:31:51.805Z,16.20
2019-05-21T18:34:22.536Z,16.10
2019-05-21T18:36:56.650Z,16.10
2019-05-21T18:39:27.377Z,16.00
2019-05-21T18:41:57.970Z,16.00
2019-05-21T18:44:28.059Z,16.00
2019-05-21T18:46:59.087Z,15.80
2019-05-21T18:49:29.340Z,15.80
2019-05-21T18:52:00.520Z,15.70
2019-05-21T18:54:30.855Z,15.70
2019-05-21T18:57:01.024Z,15.70
2019-05-21T18:59:32.009Z,15.60
2019-05-21T19:02:02.259Z,15.60
2019-05-21T19:04:32.746Z,15.50
2019-05-21T19:07:03.484Z,15.50
2019-05-21T19:09:35.257Z,15.50
2019-05-21T19:12:07.168Z,15.50
2019-05-21T19:14:37.165Z,15.60
2019-05-21T19:17:07.697Z,15.50
2019-05-21T19:19:38.215Z,15.40
2019-05-21T19:22:08.361Z,15.40
2019-05-21T19:24:38.362Z,15.40
2019-05-21T19:27:09.015Z,15.30
2019-05-21T19:29:39.303Z,15.30
2019-05-21T19:32:09.544Z,15.30
2019-05-21T19:34:40.183Z,15.30
2019-05-21T19:37:11.017Z,15.20
2019-05-21T19:39:41.272Z,15.10
2019-05-21T19:42:11.642Z,15.20
2019-05-21T19:44:42.206Z,15.10
2019-05-21T19:47:12.613Z,15.10
2019-05-21T19:49:42.921Z,15.10
2019-05-21T19:52:13.487Z,15.00
2019-05-21T19:54:43.620Z,14.90
2019-05-21T19:57:14.593Z,14.90
2019-05-21T19:59:45.930Z,14.90
2019-05-21T20:02:16.746Z,14.90
2019-05-21T20:04:47.581Z,14.90
2019-05-21T20:07:19.535Z,14.90
2019-05-21T20:09:52.197Z,14.90
2019-05-21T20:12:23.974Z,15.00
2019-05-21T20:14:55.058Z,15.00
2019-05-21T20:17:28.162Z,14.90
2019-05-21T20:19:58.818Z,14.90
2019-05-21T20:22:30.560Z,15.00
2019-05-21T20:25:02.391Z,15.00
2019-05-21T20:27:33.066Z,14.90
2019-05-21T20:30:12.135Z,14.80
2019-05-21T20:32:36.853Z,14.80
2019-05-21T20:35:08.680Z,14.80
2019-05-21T20:37:41.424Z,14.80
2019-05-21T20:40:12.987Z,14.80
2019-05-21T20:42:43.862Z,14.70
2019-05-21T20:45:16.282Z,14.60
2019-05-21T20:47:46.362Z,14.60
2019-05-21T20:50:28.825Z,14.60
2019-05-21T20:52:59.122Z,14.60
2019-05-21T20:55:31.133Z,14.70
2019-05-21T20:58:01.150Z,14.70
2019-05-21T21:00:43.705Z,14.60
2019-05-21T21:03:15.333Z,14.60
2019-05-21T21:05:46.171Z,14.60
2019-05-21T21:08:18.002Z,14.60
2019-05-21T21:10:48.251Z,14.60
2019-05-21T21:13:18.632Z,14.50
2019-05-21T21:15:49.962Z,14.50
2019-05-21T21:18:21.025Z,14.50
2019-05-21T21:20:51.230Z,14.60
2019-05-21T21:23:25.807Z,14.50
2019-05-21T21:25:56.378Z,14.40
2019-05-21T21:28:26.623Z,14.50
2019-05-21T21:30:57.820Z,14.40
2019-05-21T21:33:28.523Z,14.40
2019-05-21T21:35:58.880Z,14.40
2019-05-21T21:38:31.299Z,14.40
2019-05-21T21:41:30.370Z,14.30
2019-05-21T21:44:00.857Z,14.30
2019-05-21T21:46:31.160Z,14.30
2019-05-21T21:49:01.312Z,14.30
2019-05-21T21:51:32.327Z,14.40
2019-05-21T21:54:02.698Z,14.30
2019-05-21T21:56:33.524Z,14.30
2019-05-21T21:59:03.823Z,14.30
2019-05-21T22:01:55.685Z,14.40
2019-05-21T22:04:32.228Z,14.40
2019-05-21T22:07:03.305Z,14.40
2019-05-21T22:09:35.540Z,14.30
2019-05-21T22:12:08.971Z,14.30
2019-05-21T22:14:50.243Z,14.30
2019-05-21T22:17:16.169Z,14.30
2019-05-21T22:19:47.670Z,14.30
2019-05-21T22:22:19.480Z,14.30
2019-05-21T22:24:51.161Z,14.30
2019-05-21T22:27:22.238Z,14.30
2019-05-21T22:29:52.853Z,14.30
2019-05-21T22:32:24.614Z,14.30
2019-05-21T22:34:55.136Z,14.20
2019-05-21T22:37:28.288Z,14.20
2019-05-21T22:39:58.741Z,14.20
2019-05-21T22:42:29.602Z,14.10
2019-05-21T22:45:07.839Z,14.10
2019-05-21T22:47:32.210Z,14.00
2019-05-21T22:50:06.083Z,14.10
2019-05-21T22:52:36.395Z,14.10
2019-05-21T22:55:07.773Z,14.00
2019-05-21T22:57:38.144Z,14.00
2019-05-21T23:00:09.305Z,13.90
2019-05-21T23:02:40.670Z,14.00
2019-05-21T23:05:11.370Z,13.90
2019-05-21T23:07:41.286Z,13.90
2019-05-21T23:10:12.512Z,13.80
2019-05-21T23:12:43.382Z,13.80
2019-05-21T23:15:24.479Z,13.80
2019-05-21T23:17:46.421Z,13.80
2019-05-21T23:20:17.206Z,13.80
2019-05-21T23:22:49.184Z,13.80
2019-05-21T23:25:19.615Z,13.80
2019-05-21T23:27:50.366Z,13.80
2019-05-21T23:30:21.487Z,13.70
2019-05-21T23:32:52.363Z,13.70
2019-05-21T23:35:22.656Z,13.70
2019-05-21T23:37:52.815Z,13.60
2019-05-21T23:40:24.767Z,13.60
2019-05-21T23:42:55.830Z,13.50
2019-05-21T23:45:26.352Z,13.40
2019-05-21T23:47:57.319Z,13.50
2019-05-21T23:50:29.112Z,13.50
2019-05-21T23:53:00.770Z,13.50
2019-05-21T23:55:31.369Z,13.50
2019-05-21T23:58:01.669Z,13.40
